Time;durP1;ratioP1;P1;durP2;ratioP2;P2;SDS_P1;SDS_P2;PMS_P1;PMS_P2;Temp;Humidity;BMP_temperature;BMP_pressure;BME280_temperature;BME280_humidity;BME280_pressure;Samples;Min_cycle;Max_cycle;Signal;HPM_P1;HPM_P2
2023/07/15 00:01:30;;;;;;;8.43;2.57;;;;;;;21.59;61.74;156883.34;4934271;29;20035;-73
2023/07/15 00:03:56;;;;;;;7.03;2.37;;;;;;;21.60;61.57;156884.69;4930321;29;20102;-73
2023/07/15 00:06:24;;;;;;;10.23;2.55;;;;;;;21.56;61.82;156874.22;4935000;29;20496;-73
2023/07/15 00:08:50;;;;;;;8.40;2.95;;;;;;;21.50;62.16;156859.84;4929360;29;20456;-73
2023/07/15 00:11:21;;;;;;;;;;;;;;;21.43;62.41;156840.25;4933735;29;20072;-74
2023/07/15 00:13:47;;;;;;;5.53;2.70;;;;;;;21.30;64.03;156806.31;4931608;29;20367;-73
2023/07/15 00:16:13;;;;;;;5.50;2.67;;;;;;;21.28;64.15;156801.13;4933628;29;20034;-73
2023/07/15 00:18:38;;;;;;;6.40;2.50;;;;;;;21.47;62.54;156852.03;4920632;29;20031;-74
2023/07/15 00:21:20;;;;;;;4.30;2.43;;;;;;;21.53;62.00;156867.69;4935977;29;20108;-73
2023/07/15 00:23:46;;;;;;;3.92;2.15;;;;;;;21.63;61.28;156893.81;4917116;29;20044;-74
2023/07/15 00:26:11;;;;;;;6.90;2.58;;;;;;;21.74;60.80;156921.25;4935447;29;20424;-72
2023/07/15 00:28:36;;;;;;;5.17;2.43;;;;;;;21.88;59.65;156957.84;4935767;29;20039;-73
2023/07/15 00:31:10;;;;;;;6.57;2.67;;;;;;;21.83;60.10;156944.78;4916951;29;20039;-73
2023/07/15 00:33:36;;;;;;;6.32;2.15;;;;;;;21.91;58.80;156966.97;4930767;29;20066;-73
2023/07/15 00:36:01;;;;;;;5.60;2.40;;;;;;;21.91;59.63;156965.66;4930952;29;20524;-73
2023/07/15 00:38:27;;;;;;;9.73;2.00;;;;;;;21.99;58.57;156986.56;4917443;29;20031;-73
2023/07/15 00:40:53;;;;;;;12.50;2.17;;;;;;;21.92;58.61;156969.56;4932601;29;20070;-73
2023/07/15 00:43:58;;;;;;;6.32;2.30;;;;;;;21.90;58.21;156964.38;4933850;29;20503;-74
2023/07/15 00:46:39;;;;;;;4.03;2.53;;;;;;;21.87;58.20;156956.50;4930059;29;20114;-73
2023/07/15 00:49:15;;;;;;;10.85;2.20;;;;;;;22.02;57.21;156995.69;4935571;29;20036;-74
2023/07/15 00:51:47;;;;;;;7.60;2.90;;;;;;;21.89;57.74;156961.78;4927913;29;20036;-73
2023/07/15 00:54:13;;;;;;;4.68;2.35;;;;;;;21.83;57.83;156944.78;4915796;29;20035;-73
2023/07/15 00:56:40;;;;;;;8.95;3.35;;;;;;;21.78;58.43;156931.72;4926012;29;20525;-73
2023/07/15 00:59:08;;;;;;;5.95;2.42;;;;;;;21.77;58.76;156929.13;4913469;29;20512;-74
2023/07/15 01:01:35;;;;;;;7.55;3.38;;;;;;;21.72;59.42;156916.06;4915135;29;20341;-74
2023/07/15 01:04:01;;;;;;;4.78;2.90;;;;;;;21.67;60.42;156904.22;4916232;29;20031;-74
2023/07/15 01:06:26;;;;;;;6.60;2.35;;;;;;;21.66;61.71;156900.34;4899023;29;20054;-73
2023/07/15 01:08:52;;;;;;;8.93;2.90;;;;;;;21.62;64.41;156889.88;4915923;29;20119;-73
2023/07/15 01:11:17;;;;;;;12.17;3.30;;;;;;;21.46;65.81;156848.09;4915330;29;20567;-74
2023/07/15 01:13:42;;;;;;;7.53;3.03;;;;;;;21.40;67.08;156832.44;4895285;29;20100;-73
2023/07/15 01:16:08;;;;;;;8.40;3.63;;;;;;;21.29;67.85;156805.00;4913883;29;20150;-73
2023/07/15 01:18:33;;;;;;;11.63;3.33;;;;;;;21.22;68.54;156786.75;4914885;29;20036;-74
2023/07/15 01:20:59;;;;;;;8.10;2.70;;;;;;;21.17;69.48;156772.34;4915058;29;20028;-73
2023/07/15 01:23:28;;;;;;;8.73;2.83;;;;;;;21.05;69.98;156741.03;4914637;29;20187;-74
2023/07/15 01:25:54;;;;;;;7.20;2.70;;;;;;;21.04;70.81;156739.78;4911194;29;20123;-74
2023/07/15 01:28:19;;;;;;;10.70;2.50;;;;;;;20.93;71.26;156709.75;4896767;29;20107;-74
2023/07/15 01:30:45;;;;;;;7.97;2.63;;;;;;;20.92;71.97;156707.13;4913366;29;20090;-74
2023/07/15 01:33:10;;;;;;;4.57;2.90;;;;;;;20.77;72.79;156667.94;4914801;29;20059;-73
2023/07/15 01:35:36;;;;;;;6.50;2.67;;;;;;;20.71;73.47;156652.28;4910400;29;20102;-74
2023/07/15 01:38:01;;;;;;;7.83;2.73;;;;;;;20.67;74.29;156641.81;4914927;29;20113;-74
2023/07/15 01:40:27;;;;;;;13.90;2.83;;;;;;;20.69;75.13;156648.34;4910943;29;20028;-74
2023/07/15 01:42:52;;;;;;;7.93;2.50;;;;;;;20.67;75.76;156641.81;4915858;29;20528;-74
2023/07/15 01:45:17;;;;;;;8.00;2.93;;;;;;;20.55;75.98;156611.78;4913342;29;20031;-73
2023/07/15 01:47:43;;;;;;;8.30;2.83;;;;;;;20.48;77.06;156593.53;4921722;29;20503;-72
2023/07/15 01:50:09;;;;;;;;;;;;;;;20.45;77.87;156584.44;4912762;29;20107;-74
2023/07/15 01:52:35;;;;;;;15.18;3.33;;;;;;;20.40;78.08;156572.69;4912706;29;20375;-73
2023/07/15 01:55:00;;;;;;;13.37;3.67;;;;;;;20.36;78.33;156562.25;4896423;29;20028;-74
2023/07/15 01:57:26;;;;;;;6.47;2.37;;;;;;;20.37;78.87;156563.53;4908407;29;20130;-74
2023/07/15 01:59:57;;;;;;;11.40;2.70;;;;;;;20.39;79.03;156570.06;4920736;29;20032;-74
2023/07/15 02:02:26;;;;;;;5.22;2.72;;;;;;;20.44;79.11;156581.81;4911341;29;20059;-73
2023/07/15 02:04:52;;;;;;;5.25;2.63;;;;;;;20.47;79.33;156589.63;4911824;29;20036;-74
2023/07/15 02:07:17;;;;;;;4.27;2.43;;;;;;;20.40;79.40;156571.38;4912451;29;20488;-73
2023/07/15 02:09:42;;;;;;;7.63;3.07;;;;;;;20.37;79.64;156564.84;4910734;29;20035;-74
2023/07/15 02:12:08;;;;;;;12.43;2.77;;;;;;;20.34;80.16;156555.72;4913841;29;20028;-73
2023/07/15 02:14:36;;;;;;;11.80;2.63;;;;;;;20.27;79.80;156537.47;4911891;29;20024;-73
2023/07/15 02:17:03;;;;;;;8.10;2.47;;;;;;;20.26;80.36;156534.84;4912535;29;20092;-73
2023/07/15 02:19:30;;;;;;;;;;;;;;;20.24;81.15;156530.97;4911143;29;20107;-72
2023/07/15 02:21:56;;;;;;;9.27;2.75;;;;;;;20.16;81.23;156510.06;4913738;29;19915;-73
2023/07/15 02:24:21;;;;;;;5.50;2.93;;;;;;;20.15;81.60;156506.13;4912491;29;20126;-73
2023/07/15 02:26:46;;;;;;;7.33;2.97;;;;;;;20.17;82.80;156512.66;4910635;29;20070;-73
2023/07/15 02:29:13;;;;;;;6.23;2.70;;;;;;;20.18;82.32;156514.00;4912689;29;20032;-72
2023/07/15 02:31:38;;;;;;;14.40;2.50;;;;;;;20.22;83.15;156524.44;4913134;29;20456;-73
2023/07/15 02:34:04;;;;;;;6.33;2.70;;;;;;;20.27;83.03;156537.47;4918274;29;20060;-73
2023/07/15 02:36:29;;;;;;;6.15;3.38;;;;;;;20.35;83.04;156559.66;4906976;29;20039;-73
2023/07/15 02:38:55;;;;;;;5.20;2.77;;;;;;;20.36;83.19;156562.25;4914119;29;20032;-71
2023/07/15 02:41:20;;;;;;;7.57;2.90;;;;;;;20.33;83.46;156554.41;4912352;29;20062;-73
2023/07/15 02:43:45;;;;;;;12.03;2.60;;;;;;;20.26;84.22;156536.16;4912669;29;20028;-70
2023/07/15 02:46:11;;;;;;;7.17;2.23;;;;;;;20.41;83.92;156573.97;4911658;29;20036;-72
2023/07/15 02:48:36;;;;;;;8.27;2.67;;;;;;;20.43;83.97;156580.50;4912138;29;20028;-73
2023/07/15 02:51:02;;;;;;;5.37;2.20;;;;;;;20.52;83.84;156604.00;4912745;29;20031;-74
2023/07/15 02:53:27;;;;;;;10.07;2.27;;;;;;;20.51;83.77;156600.06;4913839;29;20056;-74
2023/07/15 02:55:53;;;;;;;8.80;2.73;;;;;;;20.54;83.93;156607.94;4912453;29;20392;-74
2023/07/15 02:58:18;;;;;;;9.13;2.33;;;;;;;20.54;84.14;156607.94;4915495;29;20040;-73
2023/07/15 03:00:44;;;;;;;3.50;1.90;;;;;;;20.63;84.15;156631.38;4895013;29;20454;-73
2023/07/15 03:03:10;;;;;;;6.53;2.23;;;;;;;20.54;84.37;156609.19;4917874;29;20035;-73
2023/07/15 03:05:36;;;;;;;5.05;2.00;;;;;;;20.56;84.88;156614.44;4895852;29;20183;-73
2023/07/15 03:08:02;;;;;;;6.28;2.47;;;;;;;20.59;85.23;156620.97;4896291;29;20119;-74
2023/07/15 03:10:27;;;;;;;6.40;2.60;;;;;;;20.60;85.14;156624.84;4910633;29;20028;-74
2023/07/15 03:12:53;;;;;;;6.27;1.93;;;;;;;20.63;85.52;156631.38;4912270;29;20091;-74
2023/07/15 03:15:19;;;;;;;6.37;1.97;;;;;;;20.57;85.48;156615.72;4913013;29;20408;-73
2023/07/15 03:17:46;;;;;;;6.18;2.40;;;;;;;20.75;85.32;156662.72;4907755;29;20044;-73
2023/07/15 03:20:19;;;;;;;;;;;;;;;20.74;85.87;156660.06;4898258;29;20035;-74
2023/07/15 03:22:48;;;;;;;5.85;2.30;;;;;;;20.77;85.70;156669.25;4899683;29;19919;-73
2023/07/15 03:25:14;;;;;;;6.45;1.85;;;;;;;20.76;85.73;156665.31;4913360;29;20091;-73
2023/07/15 03:27:40;;;;;;;5.63;2.03;;;;;;;20.76;85.98;156665.31;4912012;29;20033;-74
2023/07/15 03:30:09;;;;;;;7.90;2.53;;;;;;;20.67;86.15;156643.16;4910438;29;20449;-74
2023/07/15 03:32:36;;;;;;;7.55;2.35;;;;;;;20.55;86.92;156611.78;4916505;29;20083;-74
2023/07/15 03:35:03;;;;;;;5.18;2.00;;;;;;;20.57;87.15;156617.06;4918994;29;20439;-74
2023/07/15 03:37:39;;;;;;;6.32;2.42;;;;;;;20.58;87.49;156619.66;4915980;29;20032;-74
2023/07/15 03:40:07;;;;;;;3.92;2.28;;;;;;;20.58;87.88;156618.31;4916002;29;20028;-75
2023/07/15 03:42:33;;;;;;;6.18;1.95;;;;;;;20.62;87.79;156628.78;4915453;29;20032;-74
2023/07/15 03:44:58;;;;;;;6.78;2.30;;;;;;;20.52;88.27;156602.69;4896809;29;20050;-74
2023/07/15 03:47:23;;;;;;;4.80;2.00;;;;;;;20.48;89.22;156592.28;4897143;29;20400;-73
2023/07/15 03:49:49;;;;;;;5.73;2.53;;;;;;;20.50;89.17;156597.47;4914376;29;20028;-73
2023/07/15 03:52:14;;;;;;;4.93;2.03;;;;;;;20.54;89.65;156609.19;4900548;29;20491;-73
2023/07/15 03:54:43;;;;;;;4.37;1.97;;;;;;;20.55;89.88;156610.53;4913584;29;20032;-74
2023/07/15 03:57:08;;;;;;;9.20;2.47;;;;;;;20.60;89.94;156623.56;4915422;29;20498;-74
2023/07/15 03:59:34;;;;;;;5.13;1.90;;;;;;;20.66;89.95;156639.22;4913688;29;20111;-74
2023/07/15 04:01:59;;;;;;;9.13;2.10;;;;;;;20.73;89.96;156657.47;4915310;29;20036;-73
2023/07/15 04:04:24;;;;;;;5.07;2.40;;;;;;;20.73;89.68;156658.81;4914942;29;20036;-73
2023/07/15 04:06:50;;;;;;;5.37;1.70;;;;;;;20.74;89.58;156660.06;4914195;29;20455;-73
2023/07/15 04:09:16;;;;;;;5.68;2.13;;;;;;;20.70;89.80;156650.94;4898683;29;20028;-73
2023/07/15 04:11:43;;;;;;;6.30;2.87;;;;;;;20.78;89.93;156670.53;4914440;29;20032;-74
2023/07/15 04:14:08;;;;;;;7.85;1.90;;;;;;;20.77;89.78;156667.94;4895874;29;20464;-74
2023/07/15 04:16:34;;;;;;;7.00;2.30;;;;;;;20.77;89.83;156667.94;4897165;29;20118;-73
2023/07/15 04:18:59;;;;;;;6.10;2.50;;;;;;;20.74;90.25;156661.41;4914672;29;20111;-74
2023/07/15 04:21:25;;;;;;;9.63;2.43;;;;;;;20.76;90.17;156666.59;4896489;29;20036;-75
2023/07/15 04:23:52;;;;;;;5.57;2.30;;;;;;;20.78;90.04;156670.53;4914801;29;20031;-74
2023/07/15 04:26:25;;;;;;;7.38;2.65;;;;;;;20.85;89.91;156690.09;4914770;29;20361;-74
2023/07/15 04:28:51;;;;;;;4.20;2.28;;;;;;;20.88;89.80;156696.63;4912909;29;20035;-74
2023/07/15 04:31:16;;;;;;;5.38;2.42;;;;;;;20.91;89.88;156704.53;4913574;29;20118;-75
2023/07/15 04:33:46;;;;;;;5.93;2.10;;;;;;;20.93;90.18;156709.75;4913470;29;20111;-74
2023/07/15 04:36:13;;;;;;;7.72;1.77;;;;;;;21.00;90.34;156729.31;4914706;29;20036;-73
2023/07/15 04:38:39;;;;;;;3.80;1.90;;;;;;;21.02;90.00;156733.25;4895600;29;20024;-74
2023/07/15 04:41:04;;;;;;;10.68;2.03;;;;;;;21.01;90.25;156730.59;4895703;29;20115;-74
2023/07/15 04:43:30;;;;;;;5.05;1.90;;;;;;;20.98;90.39;156722.78;4894143;29;20095;-74
2023/07/15 04:45:55;;;;;;;9.80;2.03;;;;;;;20.98;90.14;156722.78;4893695;29;20131;-74
2023/07/15 04:48:23;;;;;;;3.80;1.60;;;;;;;21.05;89.99;156742.38;4917108;29;20033;-74
2023/07/15 04:50:49;;;;;;;5.47;2.10;;;;;;;21.05;90.24;156741.03;4911789;29;20034;-73
2023/07/15 04:53:15;;;;;;;3.72;2.00;;;;;;;21.11;89.68;156756.69;4908249;29;20453;-74
2023/07/15 04:55:41;;;;;;;5.40;2.67;;;;;;;21.09;89.65;156751.50;4894318;29;20077;-74
2023/07/15 04:58:06;;;;;;;6.70;2.63;;;;;;;21.06;89.73;156743.66;4912228;29;20071;-74
2023/07/15 05:00:32;;;;;;;4.37;2.03;;;;;;;21.13;89.87;156761.97;4910613;29;20024;-74
2023/07/15 05:02:57;;;;;;;4.77;2.30;;;;;;;21.13;89.44;156761.97;4913610;29;20126;-74
2023/07/15 05:05:22;;;;;;;10.90;2.93;;;;;;;21.09;90.38;156751.50;4912202;29;20086;-74
2023/07/15 05:07:51;;;;;;;7.83;2.10;;;;;;;21.03;90.58;156737.13;4912552;29;20076;-73
2023/07/15 05:10:17;;;;;;;8.85;3.22;;;;;;;21.04;90.45;156739.78;4907220;29;20054;-74
2023/07/15 05:12:42;;;;;;;6.10;2.10;;;;;;;21.05;90.41;156742.38;4896895;29;20028;-74
2023/07/15 05:15:08;;;;;;;4.27;1.50;;;;;;;21.04;90.27;156739.78;4909941;29;20024;-74
2023/07/15 05:17:34;;;;;;;3.37;1.73;;;;;;;21.00;90.33;156729.31;4915359;29;20894;-74
2023/07/15 05:19:59;;;;;;;6.73;1.73;;;;;;;21.02;89.88;156734.50;4896657;29;20028;-73
2023/07/15 05:22:25;;;;;;;5.40;1.87;;;;;;;21.08;89.62;156750.16;4897960;29;20031;-74
2023/07/15 05:24:50;;;;;;;2.37;1.60;;;;;;;21.12;88.66;156759.34;4914206;29;20396;-74
2023/07/15 05:27:15;;;;;;;9.33;2.00;;;;;;;21.15;87.87;156767.16;4911331;29;20073;-74
2023/07/15 05:29:41;;;;;;;4.40;1.67;;;;;;;21.20;87.39;156780.22;4896826;29;20047;-74
2023/07/15 05:32:07;;;;;;;6.33;1.40;;;;;;;21.22;87.14;156785.41;4915219;29;20035;-74
2023/07/15 05:34:32;;;;;;;4.50;1.63;;;;;;;21.51;85.52;156861.16;4913217;29;20519;-73
2023/07/15 05:36:58;;;;;;;3.70;1.47;;;;;;;21.53;84.86;156867.69;4911307;29;20118;-74
2023/07/15 05:39:23;;;;;;;1.97;1.20;;;;;;;21.57;84.26;156876.81;4894062;29;20428;-74
2023/07/15 05:41:49;;;;;;;4.17;1.47;;;;;;;21.54;83.67;156870.28;4911484;29;20032;-74
2023/07/15 05:44:14;;;;;;;2.23;1.07;;;;;;;21.48;84.65;156853.31;4912016;29;20027;-73
2023/07/15 05:46:40;;;;;;;5.23;1.70;;;;;;;21.54;84.57;156870.28;4912563;29;20024;-74
2023/07/15 05:49:05;;;;;;;7.73;1.50;;;;;;;21.60;83.97;156884.69;4897980;29;20428;-74
2023/07/15 05:51:31;;;;;;;3.83;1.37;;;;;;;21.78;83.92;156931.72;4911759;29;20111;-75
2023/07/15 05:53:57;;;;;;;3.80;1.52;;;;;;;21.72;83.65;156917.31;4893734;29;20032;-74
2023/07/15 05:56:23;;;;;;;3.22;1.20;;;;;;;21.74;83.72;156921.25;4911739;29;20112;-74
2023/07/15 05:58:50;;;;;;;1.83;1.30;;;;;;;21.57;83.67;156876.81;4892468;29;20043;-74
2023/07/15 06:01:15;;;;;;;4.40;1.42;;;;;;;21.55;84.27;156871.63;4907063;29;20215;-74
2023/07/15 06:03:41;;;;;;;3.33;1.20;;;;;;;21.50;83.64;156858.56;4908116;29;20043;-73
2023/07/15 06:06:07;;;;;;;2.17;1.10;;;;;;;21.49;83.73;156855.91;4910266;29;20095;-73
2023/07/15 06:08:32;;;;;;;6.80;1.58;;;;;;;21.47;83.34;156850.69;4892846;29;20102;-73
2023/07/15 06:10:58;;;;;;;1.97;1.30;;;;;;;21.59;84.08;156882.03;4905573;29;20488;-73
2023/07/15 06:13:23;;;;;;;2.53;1.30;;;;;;;21.80;82.34;156936.91;4907949;29;20094;-73
2023/07/15 06:15:52;;;;;;;2.43;1.40;;;;;;;21.80;81.36;156938.25;4908916;29;20028;-74
2023/07/15 06:18:18;;;;;;;1.90;1.30;;;;;;;21.84;81.07;156948.72;4915723;29;20438;-74
2023/07/15 06:20:47;;;;;;;2.38;1.55;;;;;;;21.87;79.98;156956.50;4896597;29;20358;-73
2023/07/15 06:23:13;;;;;;;2.90;1.10;;;;;;;21.89;80.53;156960.44;4905243;29;20047;-74
2023/07/15 06:25:39;;;;;;;2.90;1.20;;;;;;;21.84;79.98;156947.38;4912624;29;20083;-73
2023/07/15 06:28:04;;;;;;;2.38;1.27;;;;;;;21.72;80.82;156916.06;4895787;29;20493;-73
2023/07/15 06:30:30;;;;;;;4.05;1.25;;;;;;;21.74;80.49;156922.59;4910724;29;20506;-74
2023/07/15 06:32:55;;;;;;;3.53;1.10;;;;;;;21.81;80.24;156939.53;4897135;29;20397;-73
2023/07/15 06:35:21;;;;;;;3.70;1.50;;;;;;;21.74;81.37;156921.25;4897466;29;20353;-74
2023/07/15 06:37:47;;;;;;;4.50;1.38;;;;;;;21.74;81.50;156922.59;4910704;29;20131;-73
2023/07/15 06:40:15;;;;;;;;;;;;;;;21.69;81.74;156908.19;4897035;29;20402;-74
2023/07/15 06:42:40;;;;;;;2.72;1.85;;;;;;;21.66;82.26;156900.34;4919347;29;19914;-74
2023/07/15 06:45:06;;;;;;;3.60;1.33;;;;;;;21.93;81.84;156970.91;4913031;29;20040;-74
2023/07/15 06:47:31;;;;;;;4.63;1.58;;;;;;;22.51;79.28;157122.50;4896412;29;20027;-74
2023/07/15 06:49:57;;;;;;;1.90;1.10;;;;;;;22.52;78.03;157126.38;4916067;29;20032;-73
2023/07/15 06:52:22;;;;;;;7.47;1.40;;;;;;;22.48;77.69;157114.63;4916447;29;20569;-74
2023/07/15 06:54:51;;;;;;;2.10;1.20;;;;;;;22.64;76.83;157156.44;4913019;29;20392;-73
2023/07/15 06:57:16;;;;;;;2.88;1.25;;;;;;;22.67;77.01;157164.31;4914085;29;20048;-73
2023/07/15 06:59:42;;;;;;;4.47;1.27;;;;;;;22.58;76.64;157140.75;4914709;29;20177;-73
2023/07/15 07:02:07;;;;;;;4.03;1.40;;;;;;;22.56;77.34;157135.56;4907557;29;20075;-73
2023/07/15 07:04:32;;;;;;;5.37;1.17;;;;;;;22.38;76.54;157088.44;4916904;29;20032;-73
2023/07/15 07:06:58;;;;;;;4.13;1.57;;;;;;;22.72;75.96;157177.38;4912851;29;20059;-73
2023/07/15 07:09:23;;;;;;;3.03;1.20;;;;;;;23.17;73.52;157294.97;4921333;29;20078;-73
2023/07/15 07:11:48;;;;;;;2.87;0.90;;;;;;;22.98;72.54;157246.59;4914091;29;20039;-72
2023/07/15 07:14:14;;;;;;;2.20;1.47;;;;;;;22.87;69.87;157216.53;4917251;29;20035;-72
2023/07/15 07:16:39;;;;;;;4.17;1.10;;;;;;;22.80;70.03;157198.25;4899009;29;20111;-73
2023/07/15 07:19:04;;;;;;;1.33;1.20;;;;;;;22.60;68.96;157145.97;4917332;29;20548;-74
2023/07/15 07:21:30;;;;;;;1.73;1.00;;;;;;;22.65;69.90;157159.03;4916741;29;20062;-74
2023/07/15 07:23:55;;;;;;;1.60;1.10;;;;;;;22.60;68.80;157145.97;4915667;29;20068;-74
2023/07/15 07:26:21;;;;;;;1.27;0.93;;;;;;;22.61;68.67;157148.56;4917001;29;20111;-74
2023/07/15 07:28:46;;;;;;;5.33;1.50;;;;;;;22.87;68.94;157217.84;4915140;29;20036;-74
2023/07/15 07:31:13;;;;;;;3.00;1.17;;;;;;;23.18;68.56;157297.63;4915989;29;20405;-74
2023/07/15 07:33:41;;;;;;;5.95;1.40;;;;;;;23.84;66.64;157470.25;4915850;29;20441;-74
2023/07/15 07:36:07;;;;;;;3.10;1.30;;;;;;;24.01;64.67;157516.03;4895779;29;20024;-73
2023/07/15 07:38:32;;;;;;;2.30;1.10;;;;;;;23.50;64.00;157381.28;4913158;29;20052;-73
2023/07/15 07:41:05;;;;;;;3.40;1.27;;;;;;;23.91;65.08;157488.59;4897264;29;20449;-73
2023/07/15 07:43:32;;;;;;;3.33;1.50;;;;;;;24.76;62.19;157711.03;4898309;29;20028;-73
2023/07/15 07:45:59;;;;;;;2.92;1.23;;;;;;;25.24;58.79;157837.97;4896809;29;20028;-73
2023/07/15 07:48:24;;;;;;;4.63;1.30;;;;;;;24.73;59.73;157703.16;4898775;29;20358;-74
2023/07/15 07:50:50;;;;;;;2.80;1.00;;;;;;;24.48;61.59;157639.00;4914340;29;20060;-74
2023/07/15 07:53:15;;;;;;;1.73;1.37;;;;;;;24.30;62.03;157590.59;4909212;29;20444;-73
2023/07/15 07:55:40;;;;;;;3.07;1.20;;;;;;;24.76;61.89;157711.03;4910288;29;20099;-74
2023/07/15 07:58:06;;;;;;;5.57;1.83;;;;;;;25.05;61.09;157788.25;4893414;29;20107;-74
2023/07/15 08:00:31;;;;;;;3.33;1.30;;;;;;;25.36;60.88;157869.47;4913871;29;20028;-74
2023/07/15 08:02:56;;;;;;;8.73;1.33;;;;;;;25.33;60.59;157860.28;4911256;29;20424;-73
2023/07/15 08:05:22;;;;;;;2.33;1.10;;;;;;;25.43;60.51;157886.47;4912667;29;20032;-74
2023/07/15 08:07:47;;;;;;;2.63;1.10;;;;;;;25.26;61.19;157843.28;4910306;29;20131;-73
2023/07/15 08:10:12;;;;;;;1.67;1.53;;;;;;;24.97;61.76;157766.00;4900349;29;20610;-74
2023/07/15 08:12:38;;;;;;;2.00;1.07;;;;;;;24.84;62.29;157733.28;4895395;29;20024;-73
2023/07/15 08:15:04;;;;;;;1.83;1.07;;;;;;;24.92;62.11;157752.91;4913217;29;20126;-73
2023/07/15 08:17:29;;;;;;;4.35;1.25;;;;;;;24.92;62.23;157752.91;4915368;29;20028;-74
2023/07/15 08:19:54;;;;;;;1.67;1.07;;;;;;;24.93;62.59;157755.53;4912762;29;20438;-73
2023/07/15 08:22:20;;;;;;;3.17;1.40;;;;;;;24.78;63.32;157716.25;4915622;29;20114;-75
2023/07/15 08:24:45;;;;;;;1.73;1.20;;;;;;;24.55;63.94;157656.03;4914193;29;20080;-73
2023/07/15 08:27:11;;;;;;;4.53;1.40;;;;;;;24.69;63.43;157694.03;4909800;29;20386;-73
2023/07/15 08:29:36;;;;;;;2.47;1.23;;;;;;;24.88;63.92;157742.44;4896470;29;20461;-73
2023/07/15 08:32:01;;;;;;;1.63;1.20;;;;;;;25.23;63.44;157835.38;4890364;29;20032;-74
2023/07/15 08:34:27;;;;;;;5.07;1.20;;;;;;;25.15;61.96;157813.13;4895902;29;20225;-73
2023/07/15 08:36:52;;;;;;;3.53;1.40;;;;;;;25.14;61.24;157810.50;4912840;29;20147;-74
2023/07/15 08:39:17;;;;;;;7.20;1.60;;;;;;;24.71;62.09;157697.97;4913800;29;20024;-73
2023/07/15 08:41:44;;;;;;;2.03;1.30;;;;;;;24.90;62.41;157749.00;4896573;29;20076;-74
2023/07/15 08:44:10;;;;;;;3.65;1.42;;;;;;;24.88;63.42;157742.44;4915169;29;20032;-73
2023/07/15 08:46:37;;;;;;;4.40;1.42;;;;;;;25.24;61.36;157836.69;4902036;29;20035;-73
2023/07/15 08:49:02;;;;;;;2.17;1.27;;;;;;;25.09;60.89;157797.41;4908701;29;20032;-73
2023/07/15 08:51:34;;;;;;;6.03;1.40;;;;;;;24.39;62.31;157615.44;4911383;29;20076;-74
2023/07/15 08:54:02;;;;;;;4.60;1.42;;;;;;;24.04;63.94;157522.56;4907171;29;20115;-74
2023/07/15 08:56:29;;;;;;;5.80;1.50;;;;;;;24.21;64.30;157567.03;4898152;29;20056;-74
2023/07/15 08:58:55;;;;;;;4.32;1.73;;;;;;;24.02;64.83;157517.34;4930500;29;20032;-74
2023/07/15 09:01:22;;;;;;;;;;;;;;;24.04;65.31;157523.91;4927653;29;20106;-74
2023/07/15 09:03:47;;;;;;;3.40;1.27;;;;;;;24.08;65.41;157533.06;4928893;29;19942;-71
2023/07/15 09:06:14;;;;;;;4.53;1.53;;;;;;;24.24;65.28;157574.91;4930477;29;20365;-72
2023/07/15 09:08:43;;;;;;;4.95;1.50;;;;;;;24.65;65.04;157682.25;4930174;29;20634;-73
2023/07/15 09:11:11;;;;;;;2.47;1.17;;;;;;;24.72;63.74;157700.56;4930061;29;20027;-72
2023/07/15 09:13:37;;;;;;;2.63;1.05;;;;;;;24.86;63.11;157737.22;4929768;29;20396;-74
2023/07/15 09:16:03;;;;;;;4.00;1.80;;;;;;;24.90;62.89;157749.00;4931268;29;20152;-75
2023/07/15 09:18:29;;;;;;;;;;;;;;;24.65;63.15;157682.25;4929927;29;20028;-74
2023/07/15 09:21:09;;;;;;;4.80;1.50;;;;;;;24.87;62.81;157739.84;4931022;29;20393;-74
2023/07/15 09:23:39;;;;;;;5.25;1.20;;;;;;;24.85;63.04;157735.91;4931864;29;20027;-74
2023/07/15 09:26:04;;;;;;;10.35;1.83;;;;;;;24.96;63.15;157763.41;4913857;29;21015;-74
2023/07/15 09:28:30;;;;;;;4.27;1.80;;;;;;;24.98;62.83;157768.63;4932702;29;20024;-74
2023/07/15 09:30:57;;;;;;;5.23;2.07;;;;;;;24.98;62.66;157769.91;4914114;29;20282;-74
2023/07/15 09:33:26;;;;;;;4.70;1.92;;;;;;;24.97;62.44;157766.00;4914043;29;20023;-73
2023/07/15 09:35:52;;;;;;;2.97;1.42;;;;;;;24.97;62.80;157766.00;4931544;29;20035;-74
2023/07/15 09:38:20;;;;;;;2.73;1.60;;;;;;;25.07;62.73;157793.47;4915125;29;20086;-74
2023/07/15 09:40:45;;;;;;;4.07;1.45;;;;;;;25.07;62.75;157793.47;4935582;29;20044;-75
2023/07/15 09:43:11;;;;;;;3.40;1.60;;;;;;;25.04;62.93;157784.31;4931937;29;20024;-74
2023/07/15 09:45:38;;;;;;;3.15;1.30;;;;;;;24.77;63.10;157713.66;4930555;29;20035;-74
2023/07/15 09:48:08;;;;;;;1.98;1.45;;;;;;;24.88;62.91;157743.78;4930586;29;20032;-74
2023/07/15 09:50:36;;;;;;;5.15;1.77;;;;;;;24.80;63.67;157722.81;4930855;29;20071;-73
2023/07/15 09:53:03;;;;;;;5.28;1.67;;;;;;;24.74;64.81;157707.09;4931768;29;20094;-74
2023/07/15 09:55:30;;;;;;;2.10;1.42;;;;;;;24.40;65.21;157616.78;4931526;29;20074;-73
2023/07/15 09:58:11;;;;;;;2.05;1.50;;;;;;;24.37;65.68;157608.91;4912815;29;20564;-74
2023/07/15 10:00:42;;;;;;;6.00;1.40;;;;;;;24.08;66.43;157534.38;4910716;29;20032;-74
2023/07/15 10:03:13;;;;;;;4.13;1.73;;;;;;;24.13;66.67;157546.13;4912158;29;20032;-74
2023/07/15 10:05:40;;;;;;;5.45;1.75;;;;;;;24.41;66.09;157620.72;4895599;29;20032;-73
2023/07/15 10:08:06;;;;;;;3.50;1.73;;;;;;;24.75;65.51;157709.72;4911460;29;20512;-74
2023/07/15 10:10:31;;;;;;;2.20;1.40;;;;;;;25.35;64.19;157865.53;4913717;29;20493;-75
2023/07/15 10:12:57;;;;;;;3.33;1.63;;;;;;;25.24;63.34;157836.69;4911699;29;20043;-74
2023/07/15 10:15:23;;;;;;;2.90;1.30;;;;;;;25.11;63.83;157802.63;4911688;29;20040;-74
2023/07/15 10:17:49;;;;;;;4.03;2.55;;;;;;;24.95;63.65;157760.75;4912459;29;20055;-73
2023/07/15 10:20:14;;;;;;;3.00;1.37;;;;;;;25.07;62.48;157793.47;4895416;29;20032;-74
2023/07/15 10:22:42;;;;;;;2.65;1.25;;;;;;;25.32;60.94;157859.00;4909884;29;20032;-73
2023/07/15 10:25:09;;;;;;;5.78;2.00;;;;;;;25.55;60.13;157917.94;4912689;29;20028;-73
2023/07/15 10:27:35;;;;;;;6.90;1.50;;;;;;;25.59;60.03;157928.38;4911704;29;20411;-73
2023/07/15 10:30:23;;;;;;;1.73;1.40;;;;;;;25.82;59.11;157989.91;4894015;29;20040;-74
2023/07/15 10:33:01;;;;;;;8.68;1.38;;;;;;;26.35;57.54;158128.81;4911276;29;20036;-73
2023/07/15 10:35:32;;;;;;;6.53;1.40;;;;;;;26.12;56.66;158067.25;4909216;29;20492;-73
2023/07/15 10:38:23;;;;;;;7.38;1.52;;;;;;;26.35;56.60;158127.53;4907999;29;20094;-74
2023/07/15 10:41:10;;;;;;;4.85;1.63;;;;;;;26.58;55.94;158187.84;4903499;29;20083;-73
2023/07/15 10:43:40;;;;;;;4.95;1.77;;;;;;;26.32;57.08;158120.97;4910070;29;20036;-73
2023/07/15 10:46:16;;;;;;;2.65;1.42;;;;;;;26.68;56.29;158214.06;4909802;29;20144;-73
2023/07/15 10:48:42;;;;;;;2.55;1.65;;;;;;;26.50;56.19;158168.13;4909088;29;20028;-74
2023/07/15 10:51:11;;;;;;;4.30;1.60;;;;;;;26.68;56.20;158215.31;4913208;29;20036;-74
2023/07/15 10:53:37;;;;;;;3.92;1.50;;;;;;;26.36;56.37;158130.16;4913244;29;20489;-73
2023/07/15 10:56:05;;;;;;;6.70;1.75;;;;;;;26.07;56.85;158055.47;4918202;29;20051;-74
2023/07/15 10:58:33;;;;;;;8.38;2.05;;;;;;;26.46;56.66;158157.63;4929562;29;20031;-73
2023/07/15 11:01:00;;;;;;;4.47;1.50;;;;;;;27.01;54.77;158300.53;4928842;29;20039;-72
2023/07/15 11:03:27;;;;;;;3.38;1.70;;;;;;;27.23;53.52;158359.59;4931991;29;20513;-72
2023/07/15 11:05:56;;;;;;;3.60;1.90;;;;;;;27.51;53.09;158431.66;4930927;29;20106;-71
2023/07/15 11:08:21;;;;;;;4.00;1.85;;;;;;;27.54;53.33;158439.53;4929976;29;20028;-71
2023/07/15 11:10:47;;;;;;;3.50;1.57;;;;;;;28.00;52.42;158560.25;4928756;29;20349;-71
2023/07/15 11:13:14;;;;;;;1.88;1.65;;;;;;;28.17;50.98;158604.84;4929695;29;20027;-72
2023/07/15 11:15:40;;;;;;;4.47;1.77;;;;;;;27.81;50.60;158510.41;4912520;29;20083;-72
2023/07/15 11:18:05;;;;;;;3.50;1.40;;;;;;;28.00;50.41;158561.53;4933573;29;20064;-71
2023/07/15 11:20:33;;;;;;;3.47;1.60;;;;;;;28.28;49.40;158634.97;4928543;29;20031;-71
2023/07/15 11:22:59;;;;;;;6.32;1.52;;;;;;;28.42;50.11;158671.78;4931868;29;20050;-71
2023/07/15 11:25:25;;;;;;;7.53;2.47;;;;;;;28.46;49.17;158680.94;4931574;29;20090;-71